Time;durP1;ratioP1;P1;durP2;ratioP2;P2;SDS_P1;SDS_P2;PMS_P1;PMS_P2;Temp;Humidity;BMP_temperature;BMP_pressure;BME280_temperature;BME280_humidity;BME280_pressure;Samples;Min_cycle;Max_cycle;Signal;HPM_P1;HPM_P2
2022/02/17 00:02:24;;;;;;;18.33;3.33;;;11.30;99.90;;;;;;5037604;28;20722;-87
2022/02/17 00:04:49;;;;;;;25.17;3.95;;;11.30;99.90;;;;;;5037854;28;20060;-88
2022/02/17 00:07:15;;;;;;;16.60;3.55;;;11.40;99.90;;;;;;5020275;28;20471;-91
2022/02/17 00:09:40;;;;;;;17.73;3.65;;;11.40;99.90;;;;;;5021157;28;20045;-88
2022/02/17 00:12:08;;;;;;;18.77;3.42;;;11.50;99.90;;;;;;5039549;28;20064;-89
2022/02/17 00:14:33;;;;;;;13.90;3.38;;;11.50;99.90;;;;;;5040443;28;20068;-88
2022/02/17 00:16:59;;;;;;;15.88;2.60;;;11.60;99.90;;;;;;5039870;28;20026;-91
2022/02/17 00:19:25;;;;;;;18.67;3.25;;;11.50;99.90;;;;;;5044494;28;20538;-90
2022/02/17 00:21:51;;;;;;;14.50;2.80;;;11.60;99.90;;;;;;5028281;28;20033;-89
2022/02/17 00:24:17;;;;;;;13.88;2.95;;;11.50;99.90;;;;;;5028991;28;20041;-90
2022/02/17 00:26:43;;;;;;;17.88;3.13;;;11.40;99.90;;;;;;5030031;28;20033;-90
2022/02/17 00:29:09;;;;;;;18.52;3.33;;;11.40;99.90;;;;;;5030479;28;20033;-90
2022/02/17 00:31:35;;;;;;;13.27;2.83;;;11.40;99.90;;;;;;5048866;28;20052;-88
2022/02/17 00:34:03;;;;;;;18.85;3.13;;;11.30;99.90;;;;;;5049133;28;20026;-93
2022/02/17 00:36:32;;;;;;;12.10;3.15;;;11.40;99.90;;;;;;5013955;28;20105;-91
2022/02/17 00:38:58;;;;;;;14.73;3.00;;;11.40;99.90;;;;;;5030277;28;20097;-91
2022/02/17 00:41:25;;;;;;;13.38;3.25;;;11.30;99.90;;;;;;5033027;28;20073;-90
2022/02/17 00:43:50;;;;;;;15.77;2.85;;;11.30;99.90;;;;;;5025972;28;20034;-87
2022/02/17 00:46:18;;;;;;;12.85;3.00;;;11.30;99.90;;;;;;5024080;28;20034;-88
2022/02/17 00:48:43;;;;;;;15.05;3.03;;;11.30;99.90;;;;;;5024431;28;20033;-89
2022/02/17 00:51:09;;;;;;;10.77;2.63;;;11.20;99.90;;;;;;5028808;28;20033;-88
2022/02/17 00:53:34;;;;;;;12.82;2.97;;;11.20;99.90;;;;;;5032294;28;20037;-90
2022/02/17 00:56:00;;;;;;;14.05;2.95;;;11.20;99.90;;;;;;4987785;28;1206594;-89
2022/02/17 00:58:26;;;;;;;13.05;2.67;;;11.20;99.90;;;;;;5026307;28;20518;-89
2022/02/17 01:00:51;;;;;;;15.25;2.70;;;11.20;99.90;;;;;;5042960;28;20479;-90
2022/02/17 01:03:17;;;;;;;14.82;3.20;;;11.20;99.90;;;;;;5026356;28;20487;-87
2022/02/17 01:05:43;;;;;;;19.38;3.40;;;11.20;99.90;;;;;;5024066;28;20037;-90
2022/02/17 01:08:09;;;;;;;15.98;3.20;;;11.20;99.90;;;;;;5038449;28;20112;-91
2022/02/17 01:10:35;;;;;;;18.00;3.72;;;11.30;99.90;;;;;;5038925;28;20053;-91
2022/02/17 01:13:01;;;;;;;21.52;3.75;;;11.20;99.90;;;;;;5037308;28;20030;-91
2022/02/17 01:15:27;;;;;;;16.90;4.25;;;11.10;99.90;;;;;;5019976;28;20036;-91
2022/02/17 01:17:53;;;;;;;21.73;3.85;;;10.80;99.90;;;;;;5037642;28;20033;-89
2022/02/17 01:20:19;;;;;;;8.02;1.83;;;10.60;99.90;;;;;;5036605;28;20501;-90
2022/02/17 01:22:45;;;;;;;8.30;1.30;;;10.10;99.90;;;;;;5018864;28;20018;-89
2022/02/17 01:25:15;;;;;;;7.10;1.17;;;9.60;99.90;;;;;;5035784;28;20033;-89
2022/02/17 01:27:42;;;;;;;10.15;1.67;;;9.30;99.90;;;;;;5017490;28;20022;-89
2022/02/17 01:30:08;;;;;;;9.18;1.30;;;9.10;99.90;;;;;;5017574;28;20042;-87
2022/02/17 01:32:34;;;;;;;10.73;1.65;;;9.10;99.90;;;;;;5017376;28;20165;-89
2022/02/17 01:35:00;;;;;;;8.68;1.65;;;9.10;99.90;;;;;;5035115;28;20072;-87
2022/02/17 01:37:26;;;;;;;9.77;2.22;;;9.20;99.90;;;;;;5034843;28;20030;-87
2022/02/17 01:39:51;;;;;;;13.63;2.53;;;9.30;99.90;;;;;;5035155;28;20048;-89
2022/02/17 01:42:17;;;;;;;16.50;2.90;;;9.30;99.90;;;;;;5017649;28;20018;-89
2022/02/17 01:44:46;;;;;;;10.82;2.25;;;9.40;99.90;;;;;;5017728;28;20132;-89
2022/02/17 01:47:14;;;;;;;14.43;2.65;;;9.40;99.90;;;;;;5035441;28;20058;-90
2022/02/17 01:49:41;;;;;;;14.68;3.45;;;9.40;99.90;;;;;;5035404;28;20055;-89
2022/02/17 01:52:08;;;;;;;17.08;3.65;;;9.50;99.90;;;;;;5017754;28;20459;-87
2022/02/17 01:54:34;;;;;;;19.38;3.17;;;9.50;99.90;;;;;;5035056;28;20125;-89
2022/02/17 01:57:04;;;;;;;19.65;4.15;;;9.60;99.90;;;;;;5034849;28;20065;-90
2022/02/17 01:59:30;;;;;;;20.55;3.80;;;9.70;99.90;;;;;;5017041;28;20029;-89
2022/02/17 02:01:56;;;;;;;23.25;4.57;;;9.80;99.90;;;;;;5016831;28;20095;-88
2022/02/17 02:04:21;;;;;;;24.55;5.28;;;9.90;99.90;;;;;;5034906;28;20083;-91
2022/02/17 02:06:47;;;;;;;25.48;4.90;;;10.00;99.90;;;;;;5017357;28;20037;-89
2022/02/17 02:09:16;;;;;;;29.23;4.75;;;10.10;99.90;;;;;;5017609;28;20033;-90
2022/02/17 02:11:42;;;;;;;23.73;4.82;;;10.10;99.90;;;;;;5017517;28;20395;-89
2022/02/17 02:14:15;;;;;;;26.50;4.97;;;10.20;99.90;;;;;;5017380;28;20029;-89
2022/02/17 02:16:42;;;;;;;26.45;4.63;;;10.20;99.90;;;;;;5016971;28;20022;-89
2022/02/17 02:19:08;;;;;;;27.58;6.00;;;10.30;99.90;;;;;;5017468;28;20045;-90
2022/02/17 02:21:34;;;;;;;33.25;4.78;;;10.30;99.90;;;;;;5017664;28;20291;-90
2022/02/17 02:24:00;;;;;;;35.47;6.88;;;10.30;99.90;;;;;;5017657;28;20117;-90
2022/02/17 02:26:27;;;;;;;29.73;4.82;;;10.40;99.90;;;;;;5017182;28;20068;-92
2022/02/17 02:28:54;;;;;;;28.13;5.28;;;10.30;99.90;;;;;;5016695;28;20025;-90
2022/02/17 02:31:20;;;;;;;23.63;5.32;;;10.30;99.90;;;;;;5017323;28;20040;-91
2022/02/17 02:33:46;;;;;;;23.00;5.07;;;10.20;99.90;;;;;;5017192;28;20029;-91
2022/02/17 02:36:12;;;;;;;25.67;4.55;;;10.20;99.90;;;;;;5017451;28;20087;-91
2022/02/17 02:38:37;;;;;;;31.60;5.40;;;10.20;99.90;;;;;;5034988;28;20112;-92
2022/02/17 02:41:10;;;;;;;29.67;5.75;;;10.10;99.90;;;;;;5035283;28;20128;-91
2022/02/17 02:43:37;;;;;;;26.00;5.38;;;10.20;99.90;;;;;;5035361;28;20120;-92
2022/02/17 02:46:03;;;;;;;24.55;4.88;;;10.10;99.90;;;;;;5020354;28;20446;-90
2022/02/17 02:48:29;;;;;;;27.33;5.38;;;10.10;99.90;;;;;;5018739;28;20542;-89
2022/02/17 02:50:54;;;;;;;25.25;5.60;;;10.10;99.90;;;;;;5017338;28;20033;-86
2022/02/17 02:53:20;;;;;;;27.13;5.30;;;10.10;99.90;;;;;;5035062;28;20092;-89
2022/02/17 02:55:47;;;;;;;27.65;5.25;;;10.00;99.90;;;;;;5017467;28;20044;-90
2022/02/17 02:58:14;;;;;;;25.38;4.32;;;10.10;99.90;;;;;;5035786;28;20049;-87
2022/02/17 03:00:42;;;;;;;22.60;4.95;;;10.10;99.90;;;;;;5019718;28;20040;-89
2022/02/17 03:03:08;;;;;;;24.88;5.15;;;10.10;99.90;;;;;;5018995;28;20021;-89
2022/02/17 03:05:34;;;;;;;26.88;4.13;;;10.10;99.90;;;;;;5035051;28;20029;-90
2022/02/17 03:08:00;;;;;;;28.08;6.28;;;10.10;99.90;;;;;;5035067;28;20113;-88
2022/02/17 03:10:30;;;;;;;27.17;5.03;;;10.00;99.90;;;;;;5034321;28;20041;-89
2022/02/17 03:13:00;;;;;;;25.95;4.43;;;10.00;99.90;;;;;;5017995;28;20048;-90
2022/02/17 03:15:26;;;;;;;27.98;5.68;;;10.10;99.90;;;;;;5017716;28;20036;-89
2022/02/17 03:17:53;;;;;;;17.33;4.53;;;10.10;99.90;;;;;;5016703;28;20068;-90
2022/02/17 03:20:20;;;;;;;18.23;3.90;;;10.10;99.90;;;;;;5017955;28;20128;-91
2022/02/17 03:22:46;;;;;;;24.52;4.15;;;10.10;99.90;;;;;;5016801;28;20030;-89
2022/02/17 03:25:13;;;;;;;20.60;4.30;;;10.10;99.90;;;;;;5017883;28;20045;-91
2022/02/17 03:27:39;;;;;;;20.73;4.20;;;10.10;99.90;;;;;;5020833;28;20026;-91
2022/02/17 03:30:07;;;;;;;16.13;3.58;;;10.10;99.90;;;;;;5040495;28;20116;-88
2022/02/17 03:32:37;;;;;;;20.13;3.50;;;10.00;99.90;;;;;;5040294;28;20029;-91
2022/02/17 03:35:05;;;;;;;16.58;3.08;;;10.00;99.90;;;;;;5039738;28;20041;-88
2022/02/17 03:37:31;;;;;;;19.27;2.92;;;9.90;99.90;;;;;;5020871;28;20030;-88
2022/02/17 03:39:56;;;;;;;19.20;3.92;;;9.90;99.90;;;;;;5038417;28;20041;-91
2022/02/17 03:42:22;;;;;;;16.17;3.65;;;9.80;99.90;;;;;;5038936;28;20094;-88
2022/02/17 03:44:48;;;;;;;18.27;3.25;;;9.80;99.90;;;;;;5019643;28;20029;-90
2022/02/17 03:47:15;;;;;;;18.55;3.30;;;9.70;99.90;;;;;;5020060;28;20033;-89
2022/02/17 03:49:40;;;;;;;21.20;3.47;;;9.60;99.90;;;;;;5020172;28;20041;-88
2022/02/17 03:52:06;;;;;;;16.52;3.05;;;9.60;99.90;;;;;;5037276;28;20124;-89
2022/02/17 03:54:32;;;;;;;16.60;3.30;;;9.60;99.90;;;;;;5019702;28;20418;-87
2022/02/17 03:56:58;;;;;;;19.30;3.13;;;9.50;99.90;;;;;;5019951;28;20487;-88
2022/02/17 03:59:24;;;;;;;12.40;3.10;;;9.50;99.90;;;;;;5019590;28;20044;-87
2022/02/17 04:01:50;;;;;;;13.15;3.53;;;9.40;99.90;;;;;;5019518;28;20048;-89
2022/02/17 04:04:16;;;;;;;21.70;4.50;;;9.30;99.90;;;;;;5020723;28;20511;-85
2022/02/17 04:06:41;;;;;;;23.05;3.35;;;9.40;99.90;;;;;;5022518;28;20040;-89
2022/02/17 04:09:07;;;;;;;19.15;3.67;;;9.50;99.90;;;;;;5020422;28;20476;-89
2022/02/17 04:11:34;;;;;;;17.75;3.35;;;9.50;99.90;;;;;;5020876;28;20128;-89
2022/02/17 04:14:00;;;;;;;18.65;3.83;;;9.60;99.90;;;;;;5026988;28;20080;-87
2022/02/17 04:16:25;;;;;;;17.05;3.80;;;9.60;99.90;;;;;;5023720;28;20562;-89
2022/02/17 04:18:51;;;;;;;17.85;3.50;;;9.60;99.90;;;;;;5040304;28;20038;-89
2022/02/17 04:21:19;;;;;;;17.20;3.28;;;9.60;99.90;;;;;;5022456;28;20045;-90
2022/02/17 04:23:45;;;;;;;18.88;3.92;;;9.60;99.90;;;;;;5023931;28;20033;-88
2022/02/17 04:26:12;;;;;;;21.08;4.75;;;9.60;99.90;;;;;;5023278;28;20037;-89
2022/02/17 04:28:39;;;;;;;18.98;3.63;;;9.70;99.90;;;;;;5023644;28;20026;-86
2022/02/17 04:31:06;;;;;;;22.20;4.00;;;9.70;99.90;;;;;;5022778;28;20040;-90
2022/02/17 04:33:33;;;;;;;16.73;3.72;;;9.80;99.90;;;;;;5023044;28;20491;-89
2022/02/17 04:35:59;;;;;;;19.92;3.95;;;9.70;99.90;;;;;;5021390;28;20392;-87
2022/02/17 04:38:25;;;;;;;20.17;4.75;;;9.80;99.90;;;;;;5023738;28;20026;-89
2022/02/17 04:43:35;;;;;;;21.13;4.00;;;9.80;99.90;;;;;;5037439;28;20048;-90
2022/02/17 04:46:01;;;;;;;18.98;4.00;;;9.80;99.90;;;;;;5019605;28;20109;-89
2022/02/17 04:48:27;;;;;;;19.00;3.67;;;9.80;99.90;;;;;;5021496;28;20033;-89
2022/02/17 04:50:52;;;;;;;19.80;4.50;;;9.80;99.90;;;;;;5024265;28;20084;-88
2022/02/17 04:53:18;;;;;;;22.80;3.90;;;9.80;99.90;;;;;;5023256;28;20033;-87
2022/02/17 04:55:44;;;;;;;21.52;4.38;;;9.80;99.90;;;;;;5046866;28;20038;-90
2022/02/17 04:58:10;;;;;;;24.77;4.78;;;9.80;99.90;;;;;;5044721;28;20464;-89
2022/02/17 05:00:36;;;;;;;25.23;4.50;;;9.80;99.90;;;;;;5028731;28;20041;-87
2022/02/17 05:03:03;;;;;;;22.23;4.63;;;9.80;99.90;;;;;;5047214;28;20030;-86
2022/02/17 05:05:28;;;;;;;18.42;3.90;;;9.80;99.90;;;;;;5027951;28;20049;-86
2022/02/17 05:07:54;;;;;;;21.80;4.47;;;9.80;99.90;;;;;;5044401;28;20037;-87
2022/02/17 05:10:20;;;;;;;19.45;4.50;;;9.70;99.90;;;;;;5024853;28;20056;-88
2022/02/17 05:12:46;;;;;;;21.00;4.20;;;9.70;99.90;;;;;;5026407;28;20037;-90
2022/02/17 05:15:12;;;;;;;16.17;4.07;;;9.70;99.90;;;;;;5025603;28;20029;-89
2022/02/17 05:17:38;;;;;;;18.45;3.53;;;9.60;99.90;;;;;;5043018;28;20086;-89
2022/02/17 05:20:05;;;;;;;16.20;3.40;;;9.70;99.90;;;;;;5045484;28;20038;-87
2022/02/17 05:22:32;;;;;;;19.38;4.75;;;9.60;99.90;;;;;;5027109;28;20029;-87
2022/02/17 05:24:57;;;;;;;27.60;4.45;;;9.60;99.90;;;;;;5023965;28;20041;-89
2022/02/17 05:27:23;;;;;;;20.42;4.80;;;9.70;99.90;;;;;;5022427;28;20040;-90
2022/02/17 05:29:49;;;;;;;29.05;5.25;;;9.70;99.90;;;;;;5024909;28;20123;-90
2022/02/17 05:32:15;;;;;;;25.48;5.93;;;9.70;99.90;;;;;;5019313;28;20047;-92
2022/02/17 05:34:40;;;;;;;22.58;4.53;;;9.70;99.90;;;;;;5022630;28;20048;-91
2022/02/17 05:37:06;;;;;;;27.42;4.95;;;9.70;99.90;;;;;;5017771;28;20079;-88
2022/02/17 05:39:32;;;;;;;30.42;4.90;;;9.70;99.90;;;;;;5018543;28;20128;-93
2022/02/17 05:41:58;;;;;;;31.17;5.80;;;9.50;99.90;;;;;;5018424;28;20060;-91
2022/02/17 05:44:23;;;;;;;19.00;4.13;;;9.30;99.90;;;;;;5019553;28;20128;-89
2022/02/17 05:46:49;;;;;;;19.38;3.53;;;8.80;99.90;;;;;;5020629;28;20554;-89
2022/02/17 05:49:15;;;;;;;30.00;5.55;;;8.40;99.90;;;;;;5021445;28;20030;-90
2022/02/17 05:51:41;;;;;;;19.15;4.20;;;8.10;99.90;;;;;;5022930;28;20087;-90
2022/02/17 05:54:06;;;;;;;16.15;3.92;;;7.90;99.90;;;;;;5022903;28;20041;-90
2022/02/17 05:56:32;;;;;;;15.82;3.40;;;7.90;99.90;;;;;;5017035;28;20041;-85
2022/02/17 05:58:58;;;;;;;16.75;3.00;;;7.80;99.90;;;;;;5041124;28;20112;-85
2022/02/17 06:01:24;;;;;;;15.00;3.35;;;7.80;99.90;;;;;;5025174;28;20072;-84
2022/02/17 06:03:49;;;;;;;13.52;3.15;;;7.70;99.90;;;;;;5036469;28;20057;-84
2022/02/17 06:06:15;;;;;;;17.25;2.95;;;7.70;99.90;;;;;;5018595;28;20061;-88
2022/02/17 06:08:40;;;;;;;17.85;3.08;;;7.70;99.90;;;;;;5016833;28;20148;-88
2022/02/17 06:11:06;;;;;;;18.48;3.63;;;7.60;99.90;;;;;;5033414;28;20136;-88
2022/02/17 06:13:32;;;;;;;16.27;3.30;;;7.70;99.90;;;;;;5018158;28;20034;-89
2022/02/17 06:15:57;;;;;;;14.40;2.65;;;7.60;99.90;;;;;;5017295;28;20032;-89
2022/02/17 06:18:26;;;;;;;15.32;3.20;;;7.70;99.90;;;;;;5018216;28;20547;-91
2022/02/17 06:20:52;;;;;;;20.17;3.42;;;7.70;99.90;;;;;;5016940;28;20415;-88
2022/02/17 06:23:18;;;;;;;20.20;3.28;;;7.80;99.90;;;;;;5012261;28;20108;-87
2022/02/17 06:25:43;;;;;;;20.63;3.22;;;7.80;99.90;;;;;;5033361;28;20120;-87
2022/02/17 06:28:09;;;;;;;25.13;3.42;;;7.80;99.90;;;;;;5022947;28;20180;-88
2022/02/17 06:30:34;;;;;;;17.58;3.95;;;7.80;99.90;;;;;;5032612;28;20159;-87
2022/02/17 06:33:00;;;;;;;20.17;3.47;;;7.90;99.90;;;;;;5033098;28;20555;-87
2022/02/17 06:35:32;;;;;;;22.65;4.13;;;8.00;99.90;;;;;;5010615;28;20033;-87
2022/02/17 06:38:02;;;;;;;17.35;3.00;;;8.10;99.90;;;;;;5014603;28;20057;-86
2022/02/17 06:40:29;;;;;;;19.40;3.58;;;8.20;99.90;;;;;;5015701;28;20681;-87
2022/02/17 06:42:55;;;;;;;15.88;3.08;;;8.20;99.90;;;;;;5015989;28;20411;-87
2022/02/17 06:45:21;;;;;;;18.50;4.03;;;8.20;99.90;;;;;;5033776;28;20116;-87
2022/02/17 06:47:47;;;;;;;13.25;2.08;;;8.30;99.90;;;;;;5015864;28;20029;-87
2022/02/17 06:50:15;;;;;;;15.73;2.55;;;8.30;99.90;;;;;;5016065;28;20364;-89
2022/02/17 06:52:41;;;;;;;15.23;3.63;;;8.40;99.90;;;;;;5014974;28;20033;-87
2022/02/17 06:55:07;;;;;;;14.77;3.05;;;8.40;99.90;;;;;;5028804;28;20065;-86
2022/02/17 06:57:33;;;;;;;16.30;2.85;;;8.40;99.90;;;;;;5018719;28;20546;-89
2022/02/17 07:00:02;;;;;;;17.73;2.83;;;8.50;99.90;;;;;;4999364;28;20046;-88
2022/02/17 07:02:31;;;;;;;12.15;2.67;;;8.50;99.90;;;;;;5014427;28;20083;-86
2022/02/17 07:04:57;;;;;;;13.32;2.28;;;8.60;99.90;;;;;;5015219;28;20033;-86
2022/02/17 07:07:22;;;;;;;15.93;2.65;;;8.60;99.90;;;;;;5015925;28;20033;-88
2022/02/17 07:09:48;;;;;;;15.00;1.98;;;8.60;99.90;;;;;;5016209;28;20038;-86
2022/02/17 07:12:17;;;;;;;14.30;2.80;;;8.60;99.90;;;;;;5015151;28;20033;-88
2022/02/17 07:14:42;;;;;;;14.02;2.22;;;8.60;99.90;;;;;;5024770;28;20124;-88
2022/02/17 07:17:09;;;;;;;12.13;1.92;;;8.60;99.90;;;;;;5031527;28;20176;-88
2022/02/17 07:19:34;;;;;;;13.00;1.75;;;8.60;99.90;;;;;;5032801;28;20037;-87
2022/02/17 07:22:00;;;;;;;13.82;1.92;;;8.60;99.90;;;;;;5012569;28;20030;-87
2022/02/17 07:24:26;;;;;;;11.80;2.58;;;8.50;99.90;;;;;;5024807;28;20057;-88
2022/02/17 07:26:52;;;;;;;13.23;2.40;;;8.50;99.90;;;;;;5015101;28;20041;-88
2022/02/17 07:29:18;;;;;;;8.05;1.88;;;8.50;99.90;;;;;;5015607;28;20493;-87
2022/02/17 07:31:45;;;;;;;11.43;2.13;;;8.50;99.90;;;;;;5015171;28;20037;-87
2022/02/17 07:34:10;;;;;;;12.13;2.15;;;8.60;99.90;;;;;;5017627;28;20036;-87
2022/02/17 07:36:37;;;;;;;9.13;2.30;;;8.60;99.90;;;;;;5016212;28;20395;-87
2022/02/17 07:39:05;;;;;;;16.55;3.03;;;8.60;99.90;;;;;;5032906;28;20041;-88
2022/02/17 07:41:32;;;;;;;16.67;3.70;;;8.70;99.90;;;;;;5016016;28;20033;-86
2022/02/17 07:43:57;;;;;;;15.07;3.05;;;8.60;99.90;;;;;;5017468;28;20121;-87
2022/02/17 07:46:23;;;;;;;14.77;2.35;;;8.40;99.90;;;;;;5015522;28;20065;-87
2022/02/17 07:48:51;;;;;;;13.30;3.05;;;8.30;99.90;;;;;;5016295;28;20026;-87
2022/02/17 07:51:17;;;;;;;13.75;2.33;;;8.30;99.90;;;;;;5015870;28;20033;-88
2022/02/17 07:53:43;;;;;;;8.70;2.00;;;8.30;99.90;;;;;;5001594;28;20037;-88
2022/02/17 07:56:09;;;;;;;20.25;3.72;;;8.20;99.90;;;;;;5015609;28;20376;-87
2022/02/17 07:58:35;;;;;;;14.43;2.83;;;8.20;99.90;;;;;;5016500;28;20092;-85
2022/02/17 08:01:01;;;;;;;13.68;2.35;;;8.20;99.90;;;;;;5026709;28;20096;-87
2022/02/17 08:03:28;;;;;;;15.57;3.45;;;8.30;99.90;;;;;;5028281;28;20033;-85
2022/02/17 08:05:53;;;;;;;14.57;2.88;;;8.30;99.90;;;;;;5025901;28;20037;-86
2022/02/17 08:08:19;;;;;;;12.38;1.95;;;8.40;99.90;;;;;;5021311;28;20033;-85
2022/02/17 08:10:45;;;;;;;10.52;1.95;;;8.50;99.90;;;;;;5024823;28;20387;-86
2022/02/17 08:13:11;;;;;;;16.85;2.30;;;8.70;99.90;;;;;;5025302;28;20029;-87
2022/02/17 08:15:37;;;;;;;13.05;2.65;;;8.80;99.90;;;;;;5023425;28;20043;-87
2022/02/17 08:18:02;;;;;;;15.48;2.22;;;8.80;99.90;;;;;;5022795;28;20026;-86
2022/02/17 08:20:28;;;;;;;8.98;2.13;;;8.80;99.90;;;;;;5026286;28;20065;-87
2022/02/17 08:22:56;;;;;;;10.65;1.70;;;8.80;99.90;;;;;;5040047;28;20033;-86
2022/02/17 08:25:24;;;;;;;11.18;2.20;;;8.80;99.90;;;;;;5026682;28;20044;-86
2022/02/17 08:27:50;;;;;;;10.43;2.05;;;8.90;99.90;;;;;;5024046;28;20029;-85
2022/02/17 08:30:17;;;;;;;9.07;1.73;;;8.90;99.90;;;;;;5034850;28;20433;-87
2022/02/17 08:32:43;;;;;;;11.82;2.60;;;8.90;99.90;;;;;;5017972;28;20060;-88
2022/02/17 08:35:13;;;;;;;12.15;2.22;;;8.90;99.90;;;;;;5018228;28;20041;-85
2022/02/17 08:37:39;;;;;;;11.48;1.85;;;8.90;99.90;;;;;;5035037;28;20026;-87
2022/02/17 08:40:07;;;;;;;15.38;2.88;;;8.90;99.90;;;;;;5019072;28;20128;-87
2022/02/17 08:42:33;;;;;;;15.30;3.47;;;8.90;99.90;;;;;;5018875;28;20040;-87
2022/02/17 08:44:59;;;;;;;12.05;2.45;;;8.90;99.90;;;;;;5034319;28;20037;-86
2022/02/17 08:47:24;;;;;;;9.60;2.25;;;8.90;99.90;;;;;;5035539;28;20053;-85
2022/02/17 08:49:51;;;;;;;11.23;2.40;;;8.90;99.90;;;;;;5017953;28;20038;-87
2022/02/17 08:52:16;;;;;;;13.07;2.38;;;8.90;99.90;;;;;;5013125;28;20052;-87
2022/02/17 08:54:42;;;;;;;16.58;2.67;;;9.00;99.90;;;;;;5007426;28;20479;-86
2022/02/17 08:57:08;;;;;;;8.68;2.03;;;9.10;99.90;;;;;;5017668;28;20050;-87
2022/02/17 08:59:34;;;;;;;13.13;2.28;;;9.10;99.90;;;;;;5017998;28;20017;-86
2022/02/17 09:02:00;;;;;;;9.38;2.45;;;9.10;99.90;;;;;;5018661;28;20034;-85
2022/02/17 09:04:27;;;;;;;10.70;2.05;;;9.10;99.90;;;;;;5022730;28;20022;-85
2022/02/17 09:06:53;;;;;;;7.60;1.60;;;9.20;99.90;;;;;;5035963;28;20065;-87
2022/02/17 09:09:19;;;;;;;10.15;1.88;;;9.20;99.90;;;;;;5035827;28;20030;-87
2022/02/17 09:11:45;;;;;;;10.38;2.00;;;9.20;99.90;;;;;;5021237;28;20164;-88
2022/02/17 09:14:11;;;;;;;9.82;1.80;;;9.40;99.90;;;;;;5021120;28;20183;-89
2022/02/17 09:16:37;;;;;;;8.90;1.92;;;9.40;99.90;;;;;;5037865;28;20372;-90
2022/02/17 09:19:05;;;;;;;7.70;1.58;;;9.40;99.90;;;;;;5035614;28;20037;-88
2022/02/17 09:21:32;;;;;;;9.43;2.03;;;9.40;99.90;;;;;;5022757;28;20037;-88
2022/02/17 09:23:58;;;;;;;7.93;2.05;;;9.40;99.90;;;;;;5017504;28;20033;-87
2022/02/17 09:26:24;;;;;;;9.20;1.67;;;9.40;99.90;;;;;;5035596;28;20073;-88
2022/02/17 09:28:50;;;;;;;10.85;2.13;;;9.40;99.90;;;;;;5018522;28;20033;-89
2022/02/17 09:31:19;;;;;;;9.85;1.40;;;9.70;99.90;;;;;;5019124;28;20021;-87
2022/02/17 09:33:52;;;;;;;14.25;2.38;;;10.20;99.90;;;;;;5019300;28;20490;-88
2022/02/17 09:36:19;;;;;;;;;;;10.70;99.90;;;;;;5019528;28;20084;-89
2022/02/17 09:38:45;;;;;;;7.85;1.90;;;10.70;99.90;;;;;;5051948;28;20016;-87
2022/02/17 09:41:14;;;;;;;8.40;1.63;;;10.70;99.90;;;;;;5051733;28;20499;-87
2022/02/17 09:43:40;;;;;;;8.73;1.52;;;10.60;99.90;;;;;;5017952;28;20025;-88
2022/02/17 09:46:05;;;;;;;10.68;1.90;;;10.50;99.90;;;;;;5034579;28;20034;-86
2022/02/17 09:48:32;;;;;;;7.53;1.80;;;11.10;99.90;;;;;;5017363;28;20095;-88
2022/02/17 09:50:58;;;;;;;9.73;1.73;;;11.60;99.90;;;;;;5035068;28;20089;-86
2022/02/17 09:53:24;;;;;;;6.95;1.40;;;11.90;99.90;;;;;;5016922;28;20483;-88
2022/02/17 09:55:49;;;;;;;10.75;2.13;;;12.20;99.90;;;;;;5016304;28;20049;-87
2022/02/17 09:58:15;;;;;;;6.95;1.42;;;12.50;99.90;;;;;;5016652;28;20033;-86
2022/02/17 10:00:42;;;;;;;5.82;1.20;;;12.50;99.90;;;;;;5016833;28;20041;-87
2022/02/17 10:03:29;;;;;;;8.43;1.58;;;13.10;99.90;;;;;;5017371;28;20039;-86
2022/02/17 10:06:15;;;;;;;7.95;1.67;;;13.80;99.90;;;;;;5030684;28;20053;-88
2022/02/17 10:08:42;;;;;;;8.90;2.05;;;14.60;99.90;;;;;;5016765;28;20034;-87
2022/02/17 10:11:24;;;;;;;10.60;1.67;;;14.70;99.90;;;;;;5017013;28;20033;-88
2022/02/17 10:14:04;;;;;;;6.83;1.43;;;15.10;99.90;;;;;;5017079;28;20463;-87
2022/02/17 10:16:51;;;;;;;7.38;1.65;;;14.80;99.90;;;;;;4997124;28;20022;-86
2022/02/17 10:19:17;;;;;;;8.60;2.15;;;14.80;99.90;;;;;;4997423;28;20034;-87
2022/02/17 10:21:42;;;;;;;7.57;1.75;;;14.40;99.90;;;;;;5014200;28;20179;-87
2022/02/17 10:24:08;;;;;;;7.50;1.35;;;14.10;99.90;;;;;;5016325;28;20112;-86
2022/02/17 10:26:34;;;;;;;4.95;1.20;;;14.00;99.90;;;;;;5033402;28;20116;-87
2022/02/17 10:29:03;;;;;;;8.02;2.10;;;13.40;99.90;;;;;;5016717;28;20033;-87
2022/02/17 10:31:32;;;;;;;8.38;1.63;;;13.50;99.90;;;;;;5016428;28;20479;-87
2022/02/17 10:34:02;;;;;;;6.80;1.60;;;13.70;99.90;;;;;;5016279;28;20125;-87
2022/02/17 10:36:37;;;;;;;7.53;1.77;;;13.80;99.90;;;;;;5035106;28;20072;-90
2022/02/17 10:39:14;;;;;;;6.78;1.35;;;13.80;99.90;;;;;;5028604;28;20103;-89
2022/02/17 10:41:49;;;;;;;6.07;1.45;;;13.90;99.90;;;;;;5015501;28;20499;-87
2022/02/17 10:44:17;;;;;;;8.63;1.65;;;13.60;99.90;;;;;;5034596;28;20029;-90
2022/02/17 10:46:43;;;;;;;6.40;1.33;;;13.30;99.90;;;;;;5023104;28;20124;-89
2022/02/17 10:49:10;;;;;;;5.97;1.10;;;13.50;99.90;;;;;;5017515;28;20072;-92
2022/02/17 10:51:36;;;;;;;10.80;1.48;;;13.90;99.90;;;;;;5034580;28;20030;-87
2022/02/17 10:54:02;;;;;;;9.35;1.50;;;14.00;99.90;;;;;;5015133;28;20040;-87
2022/02/17 10:56:32;;;;;;;8.88;1.40;;;14.50;99.90;;;;;;5016216;28;20111;-87
2022/02/17 11:00:00;;;;;;;8.57;1.98;;;14.60;99.90;;;;;;5015926;28;20037;-87
2022/02/17 11:01:54;;;;;;;;;;;14.80;99.90;;;;;;5043780;28;20395;-87
2022/02/17 11:04:19;;;;;;;6.38;1.50;;;15.20;99.90;;;;;;5016015;28;20003;-86
2022/02/17 11:06:46;;;;;;;7.68;1.75;;;15.50;99.90;;;;;;5015999;28;20065;-86
2022/02/17 11:09:12;;;;;;;7.60;1.65;;;15.40;99.00;;;;;;5033510;28;20030;-86
2022/02/17 11:11:38;;;;;;;5.88;1.52;;;14.90;99.00;;;;;;5018077;28;20120;-88
2022/02/17 11:14:05;;;;;;;8.25;1.52;;;14.60;99.40;;;;;;5017711;28;20116;-86
2022/02/17 11:16:30;;;;;;;8.90;1.58;;;14.40;98.60;;;;;;5014450;28;20033;-86
2022/02/17 11:18:58;;;;;;;8.40;1.30;;;14.30;99.90;;;;;;5016077;28;20125;-88
2022/02/17 11:21:24;;;;;;;7.93;1.40;;;15.00;99.20;;;;;;5016317;28;20049;-88
2022/02/17 11:23:56;;;;;;;6.68;2.08;;;15.80;99.40;;;;;;5015691;28;20026;-88
2022/02/17 11:26:25;;;;;;;6.57;1.30;;;16.30;97.00;;;;;;5015616;28;20051;-86
2022/02/17 11:28:51;;;;;;;7.18;1.30;;;15.90;96.30;;;;;;5015722;28;20032;-87
2022/02/17 11:31:16;;;;;;;7.07;1.95;;;15.80;96.90;;;;;;5016388;28;20030;-86
2022/02/17 11:33:57;;;;;;;8.65;1.52;;;16.30;96.30;;;;;;5015781;28;20038;-86
2022/02/17 11:36:24;;;;;;;8.23;2.03;;;16.60;96.10;;;;;;5010529;28;20029;-87
2022/02/17 11:38:52;;;;;;;7.63;1.48;;;16.50;95.30;;;;;;5031954;28;20108;-86
2022/02/17 11:41:19;;;;;;;7.13;1.75;;;16.40;96.70;;;;;;5015043;28;20423;-87
2022/02/17 11:43:48;;;;;;;4.43;1.10;;;16.50;96.20;;;;;;5032556;28;20100;-87
2022/02/17 11:46:16;;;;;;;6.88;1.60;;;16.50;95.60;;;;;;5021129;28;20025;-86
2022/02/17 11:48:51;;;;;;;6.47;1.40;;;16.90;95.90;;;;;;5036062;28;20116;-86
2022/02/17 11:51:21;;;;;;;8.32;1.70;;;17.20;95.20;;;;;;5036577;28;20104;-88
2022/02/17 11:54:17;;;;;;;7.78;1.58;;;17.40;94.90;;;;;;5034464;28;20547;-87
2022/02/17 11:56:50;;;;;;;8.93;1.70;;;17.70;95.00;;;;;;5011211;28;20411;-85
2022/02/17 11:59:32;;;;;;;6.32;1.75;;;17.90;94.80;;;;;;5050073;28;20108;-87
2022/02/17 12:02:03;;;;;;;8.52;1.58;;;18.10;93.90;;;;;;5019166;28;20507;-87
2022/02/17 12:04:30;;;;;;;4.32;1.38;;;18.00;93.60;;;;;;5044293;28;20039;-87
2022/02/17 12:07:33;;;;;;;9.13;1.85;;;18.10;93.30;;;;;;5056613;28;20033;-88
2022/02/17 12:09:58;;;;;;;5.93;1.73;;;17.80;92.70;;;;;;5035810;28;20033;-86
2022/02/17 12:12:27;;;;;;;6.75;1.70;;;17.80;94.10;;;;;;5040134;28;20119;-86
2022/02/17 12:14:54;;;;;;;6.95;1.60;;;17.60;93.60;;;;;;5037808;28;20029;-86
2022/02/17 12:17:31;;;;;;;6.18;1.60;;;17.30;93.70;;;;;;5055145;28;20021;-86
2022/02/17 12:20:13;;;;;;;7.25;1.83;;;16.60;94.50;;;;;;5036633;28;20495;-85
2022/02/17 12:23:02;;;;;;;8.60;1.55;;;16.00;95.20;;;;;;5036651;28;20132;-86
2022/02/17 12:25:30;;;;;;;7.70;1.58;;;15.30;96.00;;;;;;5053418;28;20104;-87
2022/02/17 12:28:01;;;;;;;5.45;1.40;;;14.50;96.00;;;;;;5035497;28;20021;-86
2022/02/17 12:30:28;;;;;;;7.82;1.80;;;13.90;97.00;;;;;;5038463;28;20037;-86
2022/02/17 12:33:02;;;;;;;10.30;1.92;;;13.30;97.80;;;;;;5056888;28;20078;-87
2022/02/17 12:35:27;;;;;;;8.38;1.58;;;12.90;99.40;;;;;;5037963;28;20549;-87
2022/02/17 12:38:17;;;;;;;7.63;1.73;;;12.50;99.90;;;;;;5055426;28;20132;-87
2022/02/17 12:40:44;;;;;;;5.47;1.83;;;12.20;99.90;;;;;;5038136;28;20049;-87
2022/02/17 12:43:11;;;;;;;9.32;1.58;;;12.70;99.90;;;;;;5038858;28;20070;-87
2022/02/17 12:45:46;;;;;;;7.38;1.55;;;13.50;99.90;;;;;;5038217;28;20039;-87
2022/02/17 12:48:16;;;;;;;7.22;1.80;;;13.80;99.90;;;;;;5056645;28;20029;-87
2022/02/17 12:50:43;;;;;;;5.07;1.48;;;14.40;99.20;;;;;;5038743;28;20051;-87